Terminal Aerodrome Forecast
Issued by NWS Twin Cities, MN

Home | Current Version | Previous Version | Graphics & Text | Print | Product List | Glossary On
Versions: 1 2 3 4 5 6 7 8 9 10 11 12 13 14
139
FTUS43 KMPX 221132
TAFSTC
TAF
KSTC 221132Z 2212/2312 36006KT P6SM VCSH SCT080 BKN120
     FM221600 25005KT 6SM -SHRA BR SCT050 OVC100
     FM222200 23006KT P6SM BKN120
     FM222300 24007KT P6SM BKN150
     FM230900 28006KT P6SM FEW200=

USA.gov is the U.S. government's official web portal to all federal, state and local government web resources and services.